M'pulse — FGA3015 — position and weather

sailwx.info

Track history (hours):
 
Tides and Currents Weather Stations Pressure Air Temp Water Temp Dewpoint Dewpoint Depression Visibility Wind Speed Wind Dir Waves Ship Positions

M'pulse

Last reported at 2018-May-27 13:49 UTC. Time now 2018-May-27 21:26 UTC.
Position N 47°44' W 003°21'.

Length 15 m.

Type: Sailing vessel. MMSI: 228052800.

Date/timePositionNaut miles runAvg speedWind from/ knotsBaromVisibWave heightAir tempDewpointWater temp
2018-May-27 13:49N 47°44' W 003°21'1 2.9
2018-May-27 13:30N 47°44' W 003°22'3 6.2
2018-May-27 13:00N 47°41' W 003°22'3 6.2
2018-May-27 12:30N 47°38' W 003°24'3 5.8
2018-May-27 12:00N 47°37' W 003°28'6 0.2
2018-May-26 11:28N 47°42' W 003°32'4 7.5
2018-May-26 10:58N 47°41' W 003°27'1 2.1
2018-May-26 10:30N 47°41' W 003°25'3 5.0
2018-May-26 10:00N 47°42' W 003°22'2 3.9
2018-May-26 09:29N 47°44' W 003°21'  
2018-May-21 16:16N 47°44' W 003°21'0 0.0
2018-May-21 15:58N 47°44' W 003°21'0 0.9
2018-May-21 15:30N 47°44' W 003°21'2 5.0
2018-May-21 15:00N 47°42' W 003°23'2 4.9
2018-May-21 14:30N 47°41' W 003°26'2 4.7
2018-May-21 14:00N 47°41' W 003°29'3 5.3
2018-May-21 13:28N 47°41' W 003°34'2 4.0
2018-May-21 12:56N 47°41' W 003°37'  
2018-May-19 00:25N 47°40' W 003°29'3 6.4
2018-May-19 00:00N 47°41' W 003°25'3 6.1
2018-May-18 23:30N 47°43' W 003°22'2 2.8
2018-May-18 22:57N 47°44' W 003°21'0 0.0
2018-May-18 22:30N 47°44' W 003°21'0 0.0
2018-May-18 22:00N 47°44' W 003°21'0 0.0
2018-May-18 21:30N 47°44' W 003°21'0 0.0
2018-May-18 21:00N 47°44' W 003°21'0 0.0
2018-May-18 20:30N 47°44' W 003°21'0 0.0
2018-May-18 20:00N 47°44' W 003°21'  
Track history (hours):
 
Tides and Currents Weather Stations Pressure Air Temp Water Temp Dewpoint Dewpoint Depression Visibility Wind Speed Wind Dir Waves Ship Positions

M'pulse

Last reported at 2018-May-27 13:49 UTC. Time now 2018-May-27 21:26 UTC.
Position N 47°44' W 003°21'.

Length 15 m.

Type: Sailing vessel. MMSI: 228052800.

Date/timePositionNaut miles runAvg speedWind from/ knotsBaromVisibWave heightAir tempDewpointWater temp
2018-May-27 13:49N 47°44' W 003°21'1 2.9
2018-May-27 13:30N 47°44' W 003°22'3 6.2
2018-May-27 13:00N 47°41' W 003°22'3 6.2
2018-May-27 12:30N 47°38' W 003°24'3 5.8
2018-May-27 12:00N 47°37' W 003°28'6 0.2
2018-May-26 11:28N 47°42' W 003°32'4 7.5
2018-May-26 10:58N 47°41' W 003°27'1 2.1
2018-May-26 10:30N 47°41' W 003°25'3 5.0
2018-May-26 10:00N 47°42' W 003°22'2 3.9
2018-May-26 09:29N 47°44' W 003°21'  
2018-May-21 16:16N 47°44' W 003°21'0 0.0
2018-May-21 15:58N 47°44' W 003°21'0 0.9
2018-May-21 15:30N 47°44' W 003°21'2 5.0
2018-May-21 15:00N 47°42' W 003°23'2 4.9
2018-May-21 14:30N 47°41' W 003°26'2 4.7
2018-May-21 14:00N 47°41' W 003°29'3 5.3
2018-May-21 13:28N 47°41' W 003°34'2 4.0
2018-May-21 12:56N 47°41' W 003°37'  
2018-May-19 00:25N 47°40' W 003°29'3 6.4
2018-May-19 00:00N 47°41' W 003°25'3 6.1
2018-May-18 23:30N 47°43' W 003°22'2 2.8
2018-May-18 22:57N 47°44' W 003°21'0 0.0
2018-May-18 22:30N 47°44' W 003°21'0 0.0
2018-May-18 22:00N 47°44' W 003°21'0 0.0
2018-May-18 21:30N 47°44' W 003°21'0 0.0
2018-May-18 21:00N 47°44' W 003°21'0 0.0
2018-May-18 20:30N 47°44' W 003°21'0 0.0
2018-May-18 20:00N 47°44' W 003°21'  

Dump ship's entire track history